メインページ
METAR-TAF:

METAR-TAF

空港 :

Katima Mulilo, ナミビア

緯度: 17-38-04S, 経度: 024-10-36E, 海抜: 985m

現時点の気象観測

当レポートは52分前の09:00(UTC)に作成
の風 6kt
気温 27°C
湿度 66%
気圧 1019 hPa
視程10km以上
高度2500ftの雲は散在している

METAR: FYKM 280900Z 10006KT 9999 SCT025 27/20 Q1019

時間: 11:52 (09:52 UTC)

予報

当レポートは1時間52分前の08:00(UTC)に作成
予報は28日の 09時(UTC)から 28日の 18時(UTC)まで有効
の風 10kt
視程10km以上
高度3500ftの雲は散在している
28日の 12時(UTC)から 28日の 16時(UTC)まで一時的に
高度3500ftの雲はほとんどない, 積乱雲.
激しい雷雨, 小雨,

TAF: FYKM 280800Z 2809/2818 09010KT 9999 SCT035 TEMPO 2812/2816 -TSRA FEW035CB

4,000以上の空港の気象観測と天気予報(METAR報とTAF報)

利用可能な観測所は地図上に黄色い丸と赤い丸で示す。

丸の上にカーソルを重ねると観測所名を参照できる。

次にクリックすると気象観測と天気予報を参照できる。

マップの切り替え:黒色「×」印の緑ボタンをクリックして拡大、「-」印の緑ボタンをクリックして縮小、緑色の三角印をクリックして隣りの地図に切り替え


METAR-TAF: